createdAt,value
2022-09-07T00:00:14.853Z,28
2022-09-07T00:02:16.393Z,28
2022-09-07T00:04:17.546Z,28
2022-09-07T00:08:20.870Z,6
2022-09-07T00:10:21.802Z,6
2022-09-07T00:14:24.643Z,7
2022-09-07T00:16:25.766Z,6
2022-09-07T00:18:26.844Z,7
2022-09-07T00:20:27.751Z,7
2022-09-07T00:24:30.184Z,7
2022-09-07T00:26:31.824Z,7
2022-09-07T00:28:32.807Z,7
2022-09-07T00:30:34.301Z,7
2022-09-07T00:34:37.658Z,7
2022-09-07T00:36:38.974Z,7
2022-09-07T00:38:40.102Z,7
2022-09-07T00:40:41.423Z,7
2022-09-07T00:46:45.330Z,6
2022-09-07T00:48:46.219Z,7
2022-09-07T00:50:48.045Z,7
2022-09-07T00:52:49.928Z,7
2022-09-07T00:56:52.887Z,6
2022-09-07T00:58:54.613Z,6
2022-09-07T01:00:56.032Z,6
2022-09-07T01:02:58.000Z,6
2022-09-07T01:07:00.298Z,6
2022-09-07T01:09:01.912Z,6
2022-09-07T01:11:03.480Z,7
2022-09-07T01:13:04.692Z,7
2022-09-07T01:15:05.935Z,7
2022-09-07T01:19:08.764Z,7
2022-09-07T01:21:10.589Z,7
2022-09-07T01:23:12.379Z,7
2022-09-07T01:25:13.328Z,7
2022-09-07T01:27:14.527Z,6
2022-09-07T01:29:16.116Z,6
2022-09-07T01:33:18.536Z,6
2022-09-07T01:35:19.819Z,7
2022-09-07T01:39:22.447Z,359
2022-09-07T01:41:24.323Z,359
2022-09-07T01:43:25.289Z,359
2022-09-07T01:45:27.036Z,359
2022-09-07T01:49:29.692Z,359
2022-09-07T01:51:31.001Z,359
2022-09-07T01:53:32.680Z,359
2022-09-07T01:55:33.956Z,359
2022-09-07T01:57:35.457Z,359
2022-09-07T01:59:36.642Z,359
2022-09-07T02:01:38.298Z,359
2022-09-07T02:03:39.158Z,359
2022-09-07T02:05:40.407Z,359
2022-09-07T02:11:44.527Z,359
2022-09-07T02:13:46.281Z,359
2022-09-07T02:15:47.467Z,359
2022-09-07T02:17:48.751Z,359
2022-09-07T02:21:50.895Z,359
2022-09-07T02:23:52.562Z,359
2022-09-07T02:25:54.391Z,359
2022-09-07T02:27:55.718Z,359
2022-09-07T02:31:58.853Z,359
2022-09-07T02:34:00.341Z,359
2022-09-07T02:38:02.745Z,359
2022-09-07T02:40:04.604Z,359
2022-09-07T02:42:06.300Z,359
2022-09-07T02:44:08.007Z,359
2022-09-07T02:48:10.388Z,359
2022-09-07T02:52:12.499Z,359
2022-09-07T02:54:14.342Z,359
2022-09-07T02:58:17.354Z,359
2022-09-07T03:00:18.479Z,359
2022-09-07T03:02:20.395Z,359
2022-09-07T03:04:22.073Z,359
2022-09-07T03:08:24.991Z,359
2022-09-07T03:10:26.759Z,359
2022-09-07T03:14:29.629Z,359
2022-09-07T03:16:30.700Z,359
2022-09-07T03:20:33.534Z,345
2022-09-07T03:24:36.210Z,339
2022-09-07T03:26:38.093Z,339
2022-09-07T03:30:41.391Z,339
2022-09-07T03:34:43.955Z,339
2022-09-07T03:36:44.885Z,339
2022-09-07T03:40:48.415Z,339
2022-09-07T03:42:49.561Z,339
2022-09-07T03:44:50.524Z,339
2022-09-07T03:46:51.634Z,339
2022-09-07T03:48:53.004Z,339
2022-09-07T03:50:54.672Z,339
2022-09-07T03:52:55.831Z,339
2022-09-07T03:54:56.959Z,339
2022-09-07T03:56:58.153Z,339
2022-09-07T03:58:59.543Z,339
2022-09-07T04:03:03.050Z,339
2022-09-07T04:05:04.306Z,339
2022-09-07T04:07:05.746Z,339
2022-09-07T04:09:06.695Z,339
2022-09-07T04:13:09.248Z,339
2022-09-07T04:15:10.714Z,339
2022-09-07T04:17:11.909Z,339
2022-09-07T04:19:13.159Z,339
2022-09-07T04:21:14.670Z,339
2022-09-07T04:23:16.416Z,339
2022-09-07T04:25:18.012Z,336
2022-09-07T04:27:18.882Z,336
2022-09-07T04:29:20.588Z,336
2022-09-07T04:31:21.655Z,336
2022-09-07T04:33:22.750Z,336
2022-09-07T04:35:23.808Z,336
2022-09-07T04:37:25.356Z,336
2022-09-07T04:39:27.104Z,336
2022-09-07T04:41:28.511Z,336
2022-09-07T04:43:30.237Z,336
2022-09-07T04:45:31.932Z,336
2022-09-07T04:47:33.715Z,336
2022-09-07T04:49:34.686Z,336
2022-09-07T04:51:35.698Z,336
2022-09-07T04:55:39.107Z,336
2022-09-07T04:57:40.775Z,336
2022-09-07T04:59:42.026Z,336
2022-09-07T05:01:43.612Z,336
2022-09-07T05:04:28.855Z,336
2022-09-07T05:08:31.994Z,336
2022-09-07T05:10:33.708Z,336
2022-09-07T05:12:35.270Z,337
2022-09-07T05:16:38.448Z,335
2022-09-07T05:18:39.424Z,335
2022-09-07T05:20:40.330Z,335
2022-09-07T05:22:41.671Z,335
2022-09-07T05:28:45.810Z,335
2022-09-07T05:31:16.941Z,335
2022-09-07T05:32:47.858Z,335
2022-09-07T05:34:52.368Z,335
2022-09-07T05:38:52.680Z,335
2022-09-07T05:40:54.452Z,335
2022-09-07T05:42:56.068Z,335
2022-09-07T05:44:57.570Z,335
2022-09-07T05:49:00.498Z,335
2022-09-07T05:51:01.637Z,335
2022-09-07T05:53:03.107Z,335
2022-09-07T05:57:05.879Z,335
2022-09-07T06:01:08.210Z,335
2022-09-07T06:03:09.884Z,335
2022-09-07T06:05:10.711Z,335
2022-09-07T06:11:16.277Z,335
2022-09-07T06:13:17.332Z,335
2022-09-07T06:15:18.832Z,335
2022-09-07T06:21:23.463Z,335
2022-09-07T06:23:24.652Z,335
2022-09-07T06:25:25.801Z,335
2022-09-07T06:27:27.520Z,335
2022-09-07T06:31:30.831Z,335
2022-09-07T06:33:31.930Z,335
2022-09-07T06:35:33.381Z,335
2022-09-07T06:37:34.604Z,335
2022-09-07T06:39:35.640Z,335
2022-09-07T06:42:00.499Z,335
2022-09-07T06:43:39.939Z,335
2022-09-07T06:45:39.232Z,335
2022-09-07T06:47:40.023Z,335
2022-09-07T06:51:41.812Z,335
2022-09-07T06:53:44.508Z,335
2022-09-07T06:55:44.067Z,335
2022-09-07T06:57:44.853Z,335
2022-09-07T06:59:45.727Z,335
2022-09-07T07:01:46.772Z,335
2022-09-07T07:03:48.414Z,335
2022-09-07T07:07:50.264Z,335
2022-09-07T07:09:51.063Z,48
2022-09-07T07:11:52.534Z,48
2022-09-07T07:13:53.587Z,48
2022-09-07T07:15:55.376Z,48
2022-09-07T07:18:00.562Z,48
2022-09-07T07:19:57.281Z,331
2022-09-07T07:22:18.582Z,331
2022-09-07T07:24:02.180Z,331
2022-09-07T07:26:01.355Z,331
2022-09-07T07:30:03.408Z,320
2022-09-07T07:32:04.698Z,290
2022-09-07T07:34:05.528Z,290
2022-09-07T07:36:06.609Z,290
2022-09-07T07:40:16.928Z,172
2022-09-07T07:42:10.627Z,172
2022-09-07T07:44:11.674Z,172
2022-09-07T07:46:13.019Z,173
2022-09-07T07:48:14.358Z,173
2022-09-07T07:50:31.578Z,173
2022-09-07T07:54:18.249Z,290
2022-09-07T07:58:20.438Z,195
2022-09-07T08:02:22.683Z,238
2022-09-07T08:04:24.208Z,270
2022-09-07T08:06:25.417Z,235
2022-09-07T08:08:26.811Z,238
2022-09-07T08:10:27.614Z,254
2022-09-07T08:12:29.805Z,255
2022-09-07T08:14:30.139Z,237
2022-09-07T08:18:32.608Z,258
2022-09-07T08:24:36.338Z,275
2022-09-07T08:26:37.436Z,279
2022-09-07T08:28:38.302Z,259
2022-09-07T08:30:39.259Z,235
2022-09-07T08:34:42.168Z,269
2022-09-07T08:38:44.252Z,279
2022-09-07T08:40:45.491Z,315
2022-09-07T08:44:47.927Z,233
2022-09-07T08:46:49.618Z,278
2022-09-07T08:50:51.425Z,276
2022-09-07T08:52:52.525Z,264
2022-09-07T08:54:53.957Z,180
2022-09-07T08:57:20.972Z,245
2022-09-07T09:03:29.151Z,249
2022-09-07T09:05:16.514Z,234
2022-09-07T09:07:01.556Z,216
2022-09-07T09:09:03.399Z,241
2022-09-07T09:11:04.713Z,316
2022-09-07T09:13:05.868Z,263
2022-09-07T09:15:06.769Z,176
2022-09-07T09:17:07.674Z,265
2022-09-07T09:19:09.121Z,275
2022-09-07T09:21:10.870Z,239
2022-09-07T09:23:12.220Z,203
2022-09-07T09:25:13.995Z,226
2022-09-07T09:27:14.785Z,184
2022-09-07T09:29:16.251Z,209
2022-09-07T09:33:18.800Z,249
2022-09-07T09:35:20.529Z,189
2022-09-07T09:37:22.497Z,210
2022-09-07T09:39:24.143Z,215
2022-09-07T09:43:27.168Z,288
2022-09-07T09:45:28.794Z,237
2022-09-07T09:47:30.130Z,296
2022-09-07T09:49:30.635Z,291
2022-09-07T09:53:32.787Z,264
2022-09-07T09:55:35.243Z,207
2022-09-07T10:00:00.509Z,222
2022-09-07T10:05:40.139Z,197
2022-09-07T10:07:41.251Z,262
2022-09-07T10:09:42.981Z,265
2022-09-07T10:12:06.223Z,258
2022-09-07T10:15:46.824Z,267
2022-09-07T10:17:47.716Z,57
2022-09-07T10:19:49.059Z,227
2022-09-07T10:23:51.537Z,239
2022-09-07T10:25:52.720Z,238
2022-09-07T10:27:54.427Z,201
2022-09-07T10:29:56.088Z,233
2022-09-07T10:31:57.036Z,258
2022-09-07T10:35:59.952Z,249
2022-09-07T10:38:01.210Z,198
2022-09-07T10:42:04.126Z,261
2022-09-07T10:46:06.789Z,213
2022-09-07T10:48:07.856Z,254
2022-09-07T10:52:10.290Z,224
2022-09-07T10:54:31.547Z,223
2022-09-07T10:56:12.704Z,278
2022-09-07T10:58:13.553Z,268
2022-09-07T11:00:15.240Z,231
2022-09-07T11:02:17.190Z,230
2022-09-07T11:04:18.548Z,281
2022-09-07T11:06:20.246Z,242
2022-09-07T11:08:21.146Z,200
2022-09-07T11:10:22.433Z,197
2022-09-07T11:14:24.701Z,219
2022-09-07T11:16:51.137Z,262
2022-09-07T11:20:29.229Z,280
2022-09-07T11:24:31.180Z,238
2022-09-07T11:26:32.536Z,323
2022-09-07T11:28:34.007Z,235
2022-09-07T11:30:35.757Z,244
2022-09-07T11:32:36.012Z,284
2022-09-07T11:34:36.920Z,319
2022-09-07T11:36:37.827Z,209
2022-09-07T11:38:39.319Z,227
2022-09-07T11:40:40.940Z,278
2022-09-07T11:44:43.490Z,273
2022-09-07T11:46:44.948Z,230
2022-09-07T11:49:29.612Z,262
2022-09-07T11:51:31.288Z,277
2022-09-07T11:53:32.333Z,294
2022-09-07T11:55:33.197Z,264
2022-09-07T11:57:34.727Z,278
2022-09-07T12:01:37.702Z,257
2022-09-07T12:03:38.735Z,263
2022-09-07T12:07:41.183Z,230
2022-09-07T12:09:42.580Z,299
2022-09-07T12:11:43.671Z,268
2022-09-07T12:13:44.430Z,334
2022-09-07T12:17:46.645Z,276
2022-09-07T12:21:48.529Z,239
2022-09-07T12:23:50.234Z,315
2022-09-07T12:25:51.927Z,248
2022-09-07T12:27:53.143Z,126
2022-09-07T12:29:54.281Z,280
2022-09-07T12:31:59.461Z,334
2022-09-07T12:33:56.779Z,267
2022-09-07T12:35:57.788Z,183
2022-09-07T12:37:58.911Z,242
2022-09-07T12:39:59.872Z,267
2022-09-07T12:44:02.789Z,262
2022-09-07T12:46:04.336Z,295
2022-09-07T12:50:06.697Z,247
2022-09-07T12:52:15.097Z,308
2022-09-07T12:54:08.460Z,293
2022-09-07T12:56:17.517Z,275
2022-09-07T12:58:10.844Z,269
2022-09-07T13:00:11.748Z,320
2022-09-07T13:02:13.522Z,258
2022-09-07T13:04:14.492Z,183
2022-09-07T13:06:16.117Z,237
2022-09-07T13:08:16.772Z,246
2022-09-07T13:10:18.124Z,255
2022-09-07T13:14:20.609Z,264
2022-09-07T13:16:21.477Z,284
2022-09-07T13:20:23.359Z,218
2022-09-07T13:22:24.486Z,317
2022-09-07T13:26:26.779Z,254
2022-09-07T13:28:28.409Z,224
2022-09-07T13:30:29.250Z,260
2022-09-07T13:36:31.878Z,271
2022-09-07T13:38:33.247Z,291
2022-09-07T13:40:34.054Z,252
2022-09-07T13:42:35.326Z,284
2022-09-07T13:48:39.299Z,272
2022-09-07T13:50:40.592Z,257
2022-09-07T13:52:42.306Z,258
2022-09-07T13:54:43.530Z,53
2022-09-07T13:58:46.690Z,260
2022-09-07T14:00:47.980Z,256
2022-09-07T14:02:52.097Z,261
2022-09-07T14:04:51.356Z,286
2022-09-07T14:06:52.420Z,255
2022-09-07T14:08:53.596Z,256
2022-09-07T14:10:55.236Z,263
2022-09-07T14:12:55.887Z,207
2022-09-07T14:14:57.019Z,229
2022-09-07T14:16:58.654Z,261
2022-09-07T14:18:59.726Z,227
2022-09-07T14:21:01.126Z,275
2022-09-07T14:23:02.724Z,277
2022-09-07T14:25:04.042Z,299
2022-09-07T14:27:05.685Z,287
2022-09-07T14:31:09.067Z,271
2022-09-07T14:33:11.016Z,236
2022-09-07T14:35:11.187Z,255
2022-09-07T14:39:13.700Z,173
2022-09-07T14:41:14.711Z,247
2022-09-07T14:43:16.313Z,274
2022-09-07T14:47:18.899Z,296
2022-09-07T14:49:19.039Z,231
2022-09-07T14:51:32.602Z,248
2022-09-07T14:53:35.631Z,252
2022-09-07T14:57:23.859Z,240
2022-09-07T15:01:39.511Z,281
2022-09-07T15:03:28.202Z,148
2022-09-07T15:07:30.681Z,203
2022-09-07T15:09:32.180Z,250
2022-09-07T15:11:33.429Z,214
2022-09-07T15:13:34.648Z,224
2022-09-07T15:19:37.836Z,282
2022-09-07T15:21:39.638Z,202
2022-09-07T15:23:39.855Z,251
2022-09-07T15:25:41.218Z,245
2022-09-07T15:29:43.465Z,238
2022-09-07T15:31:50.025Z,270
2022-09-07T15:35:46.717Z,235
2022-09-07T15:39:48.550Z,293
2022-09-07T15:41:51.385Z,257
2022-09-07T15:43:51.071Z,251
2022-09-07T15:45:52.715Z,238
2022-09-07T15:49:55.402Z,284
2022-09-07T15:52:06.564Z,228
2022-09-07T15:54:13.369Z,278
2022-09-07T15:55:58.584Z,246
2022-09-07T16:00:01.375Z,275
2022-09-07T16:02:02.792Z,210
2022-09-07T16:04:04.541Z,253
2022-09-07T16:06:07.811Z,249
2022-09-07T16:08:26.500Z,255
2022-09-07T16:14:11.389Z,299
2022-09-07T16:16:15.542Z,290
2022-09-07T16:18:16.376Z,178
2022-09-07T16:23:13.076Z,273
2022-09-07T16:24:17.256Z,243
2022-09-07T16:28:20.014Z,265
2022-09-07T16:32:45.299Z,242
2022-09-07T16:34:23.924Z,265
2022-09-07T16:38:46.077Z,301
2022-09-07T16:40:27.468Z,296
2022-09-07T16:42:31.360Z,279
2022-09-07T16:44:30.185Z,279
2022-09-07T16:46:31.140Z,272
2022-09-07T16:48:32.306Z,315
2022-09-07T16:50:33.644Z,256
2022-09-07T16:52:34.756Z,208
2022-09-07T16:54:35.881Z,208
2022-09-07T16:56:39.013Z,288
2022-09-07T16:58:38.606Z,288
2022-09-07T17:00:40.029Z,285
2022-09-07T17:02:41.370Z,285
2022-09-07T17:06:43.513Z,256
2022-09-07T17:08:44.596Z,217
2022-09-07T17:10:45.522Z,263
2022-09-07T17:14:48.185Z,272
2022-09-07T17:16:49.768Z,276
2022-09-07T17:20:52.255Z,287
2022-09-07T17:22:53.807Z,245
2022-09-07T17:26:55.951Z,259
2022-09-07T17:30:58.512Z,259
2022-09-07T17:33:00.225Z,259
2022-09-07T17:35:01.263Z,259
2022-09-07T17:37:03.041Z,259
2022-09-07T17:39:18.350Z,259
2022-09-07T17:41:05.529Z,259
2022-09-07T17:45:08.090Z,259
2022-09-07T17:47:09.064Z,259
2022-09-07T17:49:10.415Z,259
2022-09-07T17:51:11.132Z,259
2022-09-07T17:53:12.956Z,259
2022-09-07T18:01:18.299Z,259
2022-09-07T18:03:19.749Z,259
2022-09-07T18:05:21.027Z,259
2022-09-07T18:09:23.987Z,259
2022-09-07T18:11:47.946Z,259
2022-09-07T18:13:35.223Z,259
2022-09-07T18:15:28.501Z,259
2022-09-07T18:19:31.845Z,259
2022-09-07T18:21:32.988Z,259
2022-09-07T18:23:34.494Z,259
2022-09-07T18:25:36.012Z,259
2022-09-07T18:27:37.338Z,259
2022-09-07T18:29:38.938Z,259
2022-09-07T18:31:40.129Z,259
2022-09-07T18:34:24.949Z,259
2022-09-07T18:36:26.260Z,259
2022-09-07T18:38:27.682Z,259
2022-09-07T18:40:28.539Z,259
2022-09-07T18:42:29.973Z,259
2022-09-07T18:46:33.877Z,259
2022-09-07T18:48:34.272Z,259
2022-09-07T18:50:35.901Z,259
2022-09-07T18:52:53.138Z,259
2022-09-07T18:56:40.194Z,259
2022-09-07T18:58:41.451Z,259
2022-09-07T19:00:42.633Z,259
2022-09-07T19:02:43.991Z,259
2022-09-07T19:08:47.873Z,259
2022-09-07T19:10:49.165Z,259
2022-09-07T19:12:50.861Z,259
2022-09-07T19:18:54.347Z,259
2022-09-07T19:20:56.090Z,259
2022-09-07T19:22:57.890Z,259
2022-09-07T19:29:01.697Z,259
2022-09-07T19:31:03.030Z,259
2022-09-07T19:33:04.859Z,259
2022-09-07T19:35:06.233Z,259
2022-09-07T19:39:08.787Z,259
2022-09-07T19:41:09.808Z,259
2022-09-07T19:45:12.516Z,259
2022-09-07T19:49:15.517Z,259
2022-09-07T19:51:16.415Z,259
2022-09-07T19:55:19.674Z,259
2022-09-07T19:59:21.878Z,259
2022-09-07T20:01:22.962Z,259
2022-09-07T20:05:25.799Z,259
2022-09-07T20:07:26.953Z,259
2022-09-07T20:11:29.448Z,259
2022-09-07T20:13:30.473Z,259
2022-09-07T20:15:31.871Z,259
2022-09-07T20:17:35.273Z,259
2022-09-07T20:19:34.681Z,259
2022-09-07T20:21:35.761Z,259
2022-09-07T20:27:39.214Z,259
2022-09-07T20:29:40.146Z,259
2022-09-07T20:31:41.842Z,259
2022-09-07T20:33:42.718Z,259
2022-09-07T20:37:45.534Z,259
2022-09-07T20:39:47.300Z,259
2022-09-07T20:41:49.107Z,112
2022-09-07T20:43:50.196Z,112
2022-09-07T20:45:51.208Z,112
2022-09-07T20:47:52.364Z,112
2022-09-07T20:49:53.734Z,112
2022-09-07T20:51:55.311Z,112
2022-09-07T20:53:56.698Z,112
2022-09-07T20:55:58.317Z,112
2022-09-07T20:57:59.734Z,112
2022-09-07T21:00:00.731Z,112
2022-09-07T21:02:02.119Z,112
2022-09-07T21:04:03.156Z,112
2022-09-07T21:06:04.921Z,112
2022-09-07T21:08:06.116Z,112
2022-09-07T21:10:07.441Z,112
2022-09-07T21:12:08.852Z,112
2022-09-07T21:14:10.038Z,112
2022-09-07T21:16:11.712Z,112
2022-09-07T21:20:14.220Z,112
2022-09-07T21:22:15.759Z,112
2022-09-07T21:26:19.407Z,112
2022-09-07T21:28:20.568Z,112
2022-09-07T21:30:21.889Z,112
2022-09-07T21:32:23.203Z,112
2022-09-07T21:34:24.482Z,112
2022-09-07T21:36:25.521Z,112
2022-09-07T21:38:26.398Z,112
2022-09-07T21:40:27.809Z,112
2022-09-07T21:42:29.488Z,112
2022-09-07T21:44:31.306Z,112
2022-09-07T21:46:32.558Z,112
2022-09-07T21:48:34.121Z,112
2022-09-07T21:50:35.213Z,112
2022-09-07T21:52:36.722Z,112
2022-09-07T21:54:37.617Z,112
2022-09-07T21:56:41.056Z,112
2022-09-07T21:58:40.104Z,112
2022-09-07T22:02:42.839Z,112
2022-09-07T22:04:44.130Z,112
2022-09-07T22:08:47.710Z,112
2022-09-07T22:10:48.898Z,112
2022-09-07T22:12:49.864Z,112
2022-09-07T22:14:51.689Z,112
2022-09-07T22:18:53.755Z,112
2022-09-07T22:20:54.804Z,112
2022-09-07T22:22:55.926Z,112
2022-09-07T22:24:57.073Z,112
2022-09-07T22:26:58.158Z,112
2022-09-07T22:28:59.927Z,112
2022-09-07T22:31:01.033Z,112
2022-09-07T22:33:01.867Z,112
2022-09-07T22:35:03.491Z,112
2022-09-07T22:37:04.749Z,112
2022-09-07T22:39:05.945Z,112
2022-09-07T22:41:07.656Z,112
2022-09-07T22:43:08.961Z,112
2022-09-07T22:45:10.112Z,112
2022-09-07T22:47:10.979Z,112
2022-09-07T22:51:13.376Z,112
2022-09-07T22:53:14.956Z,112
2022-09-07T22:57:18.290Z,112
2022-09-07T23:01:21.713Z,112
2022-09-07T23:03:22.848Z,113
2022-09-07T23:05:24.293Z,112
2022-09-07T23:07:25.438Z,113
2022-09-07T23:09:26.919Z,113
2022-09-07T23:11:28.792Z,114
2022-09-07T23:13:30.495Z,114
2022-09-07T23:15:31.522Z,114
2022-09-07T23:17:32.484Z,114
2022-09-07T23:19:34.301Z,114
2022-09-07T23:21:35.732Z,114
2022-09-07T23:23:36.801Z,131
2022-09-07T23:25:38.238Z,131
2022-09-07T23:27:39.221Z,131
2022-09-07T23:29:40.774Z,131
2022-09-07T23:33:43.655Z,131
2022-09-07T23:35:45.244Z,131
2022-09-07T23:37:46.737Z,131
2022-09-07T23:39:47.655Z,131
2022-09-07T23:43:51.029Z,131
2022-09-07T23:45:52.778Z,131
2022-09-07T23:49:55.498Z,131
2022-09-07T23:51:57.160Z,131
2022-09-07T23:53:58.126Z,131
2022-09-07T23:58:01.030Z,131
